createdAt,value
2022-09-06T00:00:18.731Z,101497.13
2022-09-06T00:02:47.026Z,101497.25
2022-09-06T00:05:14.665Z,101497.78
2022-09-06T00:07:42.032Z,101492.78
2022-09-06T00:10:10.383Z,101495.69
2022-09-06T00:12:38.150Z,101489.53
2022-09-06T00:15:06.648Z,101488.69
2022-09-06T00:17:34.441Z,101483.53
2022-09-06T00:20:03.571Z,101486.78
2022-09-06T00:22:30.899Z,101488.97
2022-09-06T00:24:57.863Z,101488.44
2022-09-06T00:27:24.894Z,101488.44
2022-09-06T00:29:52.199Z,101488.56
2022-09-06T00:32:19.192Z,101496.41
2022-09-06T00:35:00.021Z,101487.66
2022-09-06T00:37:33.659Z,101490.38
2022-09-06T00:40:00.664Z,101489.84
2022-09-06T00:42:27.737Z,101487.81
2022-09-06T00:44:55.045Z,101486.44
2022-09-06T00:47:22.109Z,101483.00
2022-09-06T00:49:53.782Z,101478.25
2022-09-06T00:52:22.279Z,101479.25
2022-09-06T00:54:51.031Z,101480.97
2022-09-06T00:57:18.796Z,101476.38
2022-09-06T00:59:47.713Z,101480.44
2022-09-06T01:02:15.122Z,101482.47
2022-09-06T01:04:44.581Z,101481.94
2022-09-06T01:07:25.686Z,101473.06
2022-09-06T01:10:21.888Z,101473.69
2022-09-06T01:13:17.331Z,101470.97
2022-09-06T01:16:19.931Z,101467.03
2022-09-06T01:19:10.882Z,101464.63
2022-09-06T01:22:08.484Z,101472.59
2022-09-06T01:24:54.802Z,101474.59
2022-09-06T01:27:44.260Z,101476.94
2022-09-06T01:30:13.822Z,101485.47
2022-09-06T01:33:11.769Z,101493.97
2022-09-06T01:35:55.325Z,101499.56
2022-09-06T01:38:22.448Z,101496.00
2022-09-06T01:40:49.408Z,101494.28
2022-09-06T01:43:34.755Z,101497.69
2022-09-06T01:46:27.863Z,101496.13
2022-09-06T01:49:13.342Z,101500.19
2022-09-06T01:52:09.127Z,101499.34
2022-09-06T01:54:57.944Z,101497.34
2022-09-06T01:58:04.836Z,101493.75
2022-09-06T02:00:53.904Z,101494.75
2022-09-06T02:03:49.618Z,101490.41
2022-09-06T02:06:28.851Z,101484.75
2022-09-06T02:09:07.685Z,101489.28
2022-09-06T02:11:48.629Z,101484.16
2022-09-06T02:14:22.892Z,101482.59
2022-09-06T02:16:53.889Z,101486.47
2022-09-06T02:19:50.029Z,101486.78
2022-09-06T02:22:22.429Z,101488.97
2022-09-06T02:24:53.551Z,101488.44
2022-09-06T02:27:20.681Z,101491.47
2022-09-06T02:29:47.662Z,101495.34
2022-09-06T02:32:25.759Z,101493.66
2022-09-06T02:34:55.790Z,101493.66
2022-09-06T02:37:26.909Z,101492.78
2022-09-06T02:39:56.188Z,101502.00
2022-09-06T02:42:24.910Z,101502.00
2022-09-06T02:44:52.164Z,101493.66
2022-09-06T02:47:19.355Z,101493.47
2022-09-06T02:49:46.324Z,101493.34
2022-09-06T02:52:13.435Z,101494.50
2022-09-06T02:54:40.960Z,101491.78
2022-09-06T02:57:08.012Z,101500.25
2022-09-06T02:59:34.923Z,101501.59
2022-09-06T03:02:02.020Z,101493.72
2022-09-06T03:04:29.026Z,101490.28
2022-09-06T03:06:56.503Z,101496.75
2022-09-06T03:09:23.508Z,101487.00
2022-09-06T03:11:50.640Z,101494.50
2022-09-06T03:14:19.463Z,101502.81
2022-09-06T03:16:46.386Z,101503.81
2022-09-06T03:19:13.349Z,101500.38
2022-09-06T03:21:40.277Z,101499.53
2022-09-06T03:24:07.318Z,101489.78
2022-09-06T03:26:34.262Z,101482.94
2022-09-06T03:29:01.213Z,101483.97
2022-09-06T03:31:28.274Z,101479.50
2022-09-06T03:33:55.198Z,101480.50
2022-09-06T03:36:22.388Z,101483.38
2022-09-06T03:38:51.141Z,101479.09
2022-09-06T03:41:18.230Z,101485.22
2022-09-06T03:43:45.179Z,101479.53
2022-09-06T03:46:13.644Z,101480.00
2022-09-06T03:48:40.906Z,101478.44
2022-09-06T03:51:07.881Z,101483.19
2022-09-06T03:53:35.025Z,101479.44
2022-09-06T03:56:02.519Z,101478.72
2022-09-06T03:58:31.694Z,101470.72
2022-09-06T04:01:11.972Z,101474.13
2022-09-06T04:03:39.506Z,101477.59
2022-09-06T04:06:08.275Z,101478.44
2022-09-06T04:08:38.204Z,101469.97
2022-09-06T04:11:06.247Z,101476.25
2022-09-06T04:13:34.894Z,101483.03
2022-09-06T04:16:02.386Z,101486.59
2022-09-06T04:18:29.793Z,101487.63
2022-09-06T04:20:58.179Z,101496.94
2022-09-06T04:23:27.889Z,101496.22
2022-09-06T04:25:57.138Z,101491.81
2022-09-06T04:28:26.538Z,101494.81
2022-09-06T04:30:55.893Z,101506.56
2022-09-06T04:33:27.625Z,101502.69
2022-09-06T04:36:00.665Z,101504.09
2022-09-06T04:38:30.466Z,101503.97
2022-09-06T04:40:57.626Z,101502.09
2022-09-06T04:43:25.037Z,101496.34
2022-09-06T04:45:52.242Z,101498.91
2022-09-06T04:48:19.337Z,101498.06
2022-09-06T04:50:46.425Z,101496.50
2022-09-06T04:53:13.569Z,101507.72
2022-09-06T04:55:40.604Z,101505.41
2022-09-06T04:58:07.688Z,101513.19
2022-09-06T05:00:36.474Z,101508.19
2022-09-06T05:03:03.933Z,101511.06
2022-09-06T05:05:30.981Z,101513.94
2022-09-06T05:07:58.157Z,101515.66
2022-09-06T05:10:25.327Z,101513.81
2022-09-06T05:12:54.103Z,101509.91
2022-09-06T05:15:22.628Z,101507.88
2022-09-06T05:17:49.667Z,101519.63
2022-09-06T05:20:17.705Z,101513.19
2022-09-06T05:22:53.675Z,101516.63
2022-09-06T05:25:20.996Z,101524.22
2022-09-06T05:27:48.136Z,101521.81
2022-09-06T05:30:15.798Z,101527.56
2022-09-06T05:32:42.966Z,101530.28
2022-09-06T05:35:10.026Z,101530.44
2022-09-06T05:37:37.010Z,101537.59
2022-09-06T05:40:04.130Z,101533.84
2022-09-06T05:42:31.078Z,101528.97
2022-09-06T05:44:58.023Z,101536.13
2022-09-06T05:47:25.208Z,101539.41
2022-09-06T05:49:53.976Z,101542.88
2022-09-06T05:52:20.883Z,101543.53
2022-09-06T05:54:47.833Z,101546.13
2022-09-06T05:57:14.818Z,101542.41
2022-09-06T05:59:41.741Z,101544.81
2022-09-06T06:02:08.728Z,101541.06
2022-09-06T06:04:36.095Z,101541.81
2022-09-06T06:07:03.065Z,101546.94
2022-09-06T06:09:30.756Z,101542.34
2022-09-06T06:11:58.101Z,101543.06
2022-09-06T06:14:25.316Z,101538.31
2022-09-06T06:16:52.757Z,101543.47
2022-09-06T06:19:19.910Z,101537.88
2022-09-06T06:21:46.915Z,101544.03
2022-09-06T06:24:14.235Z,101541.19
2022-09-06T06:26:41.377Z,101551.78
2022-09-06T06:29:09.683Z,101549.75
2022-09-06T06:31:39.249Z,101548.59
2022-09-06T06:34:07.127Z,101553.72
2022-09-06T06:36:36.251Z,101554.59
2022-09-06T06:39:06.709Z,101548.69
2022-09-06T06:41:34.556Z,101550.09
2022-09-06T06:44:04.029Z,101548.78
2022-09-06T06:46:41.685Z,101535.84
2022-09-06T06:49:08.754Z,101541.00
2022-09-06T06:51:39.508Z,101534.22
2022-09-06T06:54:06.604Z,101537.81
2022-09-06T06:56:37.775Z,101531.34
2022-09-06T06:59:07.820Z,101527.44
2022-09-06T07:01:37.322Z,101527.31
2022-09-06T07:04:06.167Z,101530.88
2022-09-06T07:12:24.711Z,101521.91
2022-09-06T07:14:51.819Z,101524.34
2022-09-06T07:17:18.757Z,101529.47
2022-09-06T07:22:32.740Z,101534.63
2022-09-06T07:24:59.705Z,101533.59
2022-09-06T07:30:14.358Z,101540.00
2022-09-06T07:32:41.555Z,101543.00
2022-09-06T07:35:09.248Z,101546.44
2022-09-06T07:37:36.184Z,101558.19
2022-09-06T07:40:04.652Z,101551.41
2022-09-06T07:42:36.347Z,101553.41
2022-09-06T07:45:05.475Z,101554.66
2022-09-06T07:53:14.976Z,101556.69
2022-09-06T07:55:44.723Z,101555.34
2022-09-06T07:58:11.737Z,101560.34
2022-09-06T08:00:41.216Z,101567.19
2022-09-06T08:03:08.757Z,101560.94
2022-09-06T08:11:10.664Z,101555.25
2022-09-06T08:13:38.316Z,101553.38
2022-09-06T08:16:08.850Z,101553.25
2022-09-06T08:18:37.900Z,101550.94
2022-09-06T08:21:15.957Z,101552.00
2022-09-06T08:23:49.722Z,101546.72
2022-09-06T08:26:18.555Z,101545.56
2022-09-06T08:28:45.539Z,101542.31
2022-09-06T08:31:18.004Z,101537.56
2022-09-06T08:33:45.636Z,101544.56
2022-09-06T08:36:12.644Z,101540.31
2022-09-06T08:38:39.708Z,101536.94
2022-09-06T08:41:27.665Z,101544.31
2022-09-06T08:47:11.032Z,101529.00
2022-09-06T08:49:47.443Z,101532.25
2022-09-06T08:52:54.489Z,101534.34
2022-09-06T08:55:54.135Z,101532.50
2022-09-06T08:58:50.340Z,101537.13
2022-09-06T09:01:23.226Z,101535.44
2022-09-06T09:03:53.574Z,101538.88
2022-09-06T09:06:20.752Z,101537.00
2022-09-06T09:09:08.461Z,101531.34
2022-09-06T09:11:36.619Z,101525.22
2022-09-06T09:14:16.469Z,101522.13
2022-09-06T09:16:44.218Z,101523.84
2022-09-06T09:19:11.370Z,101523.88
2022-09-06T09:21:40.518Z,101516.19
2022-09-06T09:24:11.254Z,101520.81
2022-09-06T09:27:11.319Z,101520.28
2022-09-06T09:32:45.206Z,101511.56
2022-09-06T09:35:27.588Z,101517.38
2022-09-06T09:38:11.015Z,101519.44
2022-09-06T09:41:00.784Z,101510.50
2022-09-06T09:43:33.485Z,101502.78
2022-09-06T09:46:13.225Z,101500.22
2022-09-06T09:48:49.708Z,101504.31
2022-09-06T09:51:26.202Z,101508.09
2022-09-06T09:53:57.015Z,101501.06
2022-09-06T09:56:47.817Z,101498.28
2022-09-06T09:59:25.129Z,101490.19
2022-09-06T10:01:56.486Z,101486.09
2022-09-06T10:07:14.797Z,101481.53
2022-09-06T10:09:46.844Z,101484.25
2022-09-06T10:12:19.036Z,101477.88
2022-09-06T10:14:49.768Z,101469.78
2022-09-06T10:17:37.814Z,101476.63
2022-09-06T10:20:12.920Z,101474.69
2022-09-06T10:22:50.148Z,101460.63
2022-09-06T10:26:16.113Z,101463.47
2022-09-06T10:28:44.266Z,101448.84
2022-09-06T10:31:51.176Z,101443.31
2022-09-06T10:35:03.348Z,101441.34
2022-09-06T10:38:07.595Z,101446.47
2022-09-06T10:41:01.025Z,101448.06
2022-09-06T10:43:43.938Z,101441.41
2022-09-06T10:46:16.194Z,101441.50
2022-09-06T10:48:46.252Z,101435.47
2022-09-06T10:51:32.327Z,101430.94
2022-09-06T10:54:09.757Z,101426.97
2022-09-06T10:56:50.117Z,101430.84
2022-09-06T10:59:42.132Z,101431.81
2022-09-06T11:02:40.499Z,101420.94
2022-09-06T11:11:11.861Z,101410.59
2022-09-06T11:13:39.198Z,101410.34
2022-09-06T11:16:18.748Z,101399.22
2022-09-06T11:19:06.035Z,101394.47
2022-09-06T11:22:06.795Z,101396.00
2022-09-06T11:24:44.222Z,101385.25
2022-09-06T11:27:28.014Z,101387.25
2022-09-06T11:29:56.618Z,101384.50
2022-09-06T11:32:34.195Z,101373.97
2022-09-06T11:35:07.434Z,101382.28
2022-09-06T11:37:39.410Z,101385.09
2022-09-06T11:40:28.224Z,101373.25
2022-09-06T11:42:55.745Z,101380.38
2022-09-06T11:45:50.834Z,101373.25
2022-09-06T11:48:23.502Z,101371.84
2022-09-06T11:50:59.260Z,101366.41
2022-09-06T11:53:32.923Z,101361.66
2022-09-06T11:56:00.064Z,101354.97
2022-09-06T11:58:34.317Z,101344.00
2022-09-06T12:01:13.392Z,101339.88
2022-09-06T12:07:07.604Z,101336.75
2022-09-06T12:09:37.933Z,101339.38
2022-09-06T12:12:05.998Z,101329.00
2022-09-06T12:14:46.813Z,101334.72
2022-09-06T12:17:14.018Z,101326.28
2022-09-06T12:20:08.303Z,101319.97
2022-09-06T12:22:40.313Z,101314.06
2022-09-06T12:25:35.978Z,101309.19
2022-09-06T12:28:07.447Z,101307.75
2022-09-06T12:30:42.138Z,101302.75
2022-09-06T12:33:36.201Z,101303.44
2022-09-06T12:36:13.903Z,101304.28
2022-09-06T12:38:57.352Z,101290.50
2022-09-06T12:41:27.806Z,101296.03
2022-09-06T12:43:56.188Z,101289.47
2022-09-06T12:46:25.793Z,101290.75
2022-09-06T12:49:22.295Z,101284.34
2022-09-06T12:51:49.860Z,101270.38
2022-09-06T12:54:23.926Z,101273.16
2022-09-06T12:56:52.762Z,101272.31
2022-09-06T12:59:21.378Z,101266.81
2022-09-06T13:02:16.758Z,101263.03
2022-09-06T13:04:51.309Z,101255.81
2022-09-06T13:07:21.081Z,101247.81
2022-09-06T13:09:52.036Z,101246.53
2022-09-06T13:12:34.869Z,101236.38
2022-09-06T13:15:13.587Z,101234.25
2022-09-06T13:17:40.613Z,101227.25
2022-09-06T13:20:30.786Z,101224.91
2022-09-06T13:23:10.514Z,101227.03
2022-09-06T13:25:53.131Z,101219.19
2022-09-06T13:28:29.574Z,101218.13
2022-09-06T13:31:21.673Z,101211.75
2022-09-06T13:33:57.527Z,101205.38
2022-09-06T13:36:33.875Z,101204.97
2022-09-06T13:39:03.748Z,101208.97
2022-09-06T13:41:30.628Z,101203.69
2022-09-06T13:44:29.765Z,101200.69
2022-09-06T13:46:58.087Z,101204.50
2022-09-06T13:49:25.927Z,101190.47
2022-09-06T13:51:56.377Z,101187.06
2022-09-06T13:54:24.949Z,101185.34
2022-09-06T13:56:51.970Z,101176.63
2022-09-06T13:59:19.423Z,101176.41
2022-09-06T14:01:50.374Z,101175.31
2022-09-06T14:04:21.647Z,101178.72
2022-09-06T14:06:49.087Z,101175.09
2022-09-06T14:09:16.347Z,101173.16
2022-09-06T14:11:48.006Z,101178.09
2022-09-06T14:14:17.731Z,101172.75
2022-09-06T14:16:47.628Z,101163.63
2022-09-06T14:19:15.473Z,101171.03
2022-09-06T14:21:43.339Z,101161.28
2022-09-06T14:24:11.180Z,101160.59
2022-09-06T14:26:38.876Z,101157.44
2022-09-06T14:29:06.391Z,101142.75
2022-09-06T14:31:33.645Z,101140.63
2022-09-06T14:34:02.088Z,101136.81
2022-09-06T14:36:31.584Z,101140.03
2022-09-06T14:39:00.951Z,101135.13
2022-09-06T14:41:28.505Z,101128.53
2022-09-06T14:43:58.260Z,101132.38
2022-09-06T14:46:28.094Z,101130.66
2022-09-06T14:49:04.719Z,101124.13
2022-09-06T14:51:31.844Z,101125.44
2022-09-06T14:54:06.670Z,101125.66
2022-09-06T14:56:34.495Z,101128.28
2022-09-06T14:59:01.675Z,101119.16
2022-09-06T15:01:35.776Z,101115.53
2022-09-06T15:04:07.546Z,101114.53
2022-09-06T15:06:37.177Z,101117.91
2022-09-06T15:09:05.719Z,101115.81
2022-09-06T15:11:37.311Z,101109.63
2022-09-06T15:14:08.598Z,101103.69
2022-09-06T15:16:36.470Z,101107.72
2022-09-06T15:19:04.195Z,101101.59
2022-09-06T15:21:32.165Z,101099.03
2022-09-06T15:24:03.163Z,101096.28
2022-09-06T15:26:30.850Z,101088.44
2022-09-06T15:28:57.901Z,101085.50
2022-09-06T15:31:25.403Z,101084.88
2022-09-06T15:33:52.863Z,101074.50
2022-09-06T15:36:20.830Z,101072.16
2022-09-06T15:38:50.097Z,101073.66
2022-09-06T15:41:25.307Z,101070.91
2022-09-06T15:44:01.721Z,101053.91
2022-09-06T15:46:35.038Z,101053.91
2022-09-06T15:49:04.146Z,101056.50
2022-09-06T15:51:34.075Z,101057.56
2022-09-06T15:54:01.351Z,101052.25
2022-09-06T15:56:28.594Z,101048.41
2022-09-06T15:58:55.569Z,101048.63
2022-09-06T16:01:25.710Z,101051.41
2022-09-06T16:04:03.434Z,101046.72
2022-09-06T16:06:43.938Z,101039.72
2022-09-06T16:09:14.337Z,101032.53
2022-09-06T16:11:42.312Z,101044.41
2022-09-06T16:14:13.758Z,101048.84
2022-09-06T16:16:42.446Z,101045.22
2022-09-06T16:19:12.550Z,101047.38
2022-09-06T16:21:43.995Z,101052.66
2022-09-06T16:24:14.364Z,101050.75
2022-09-06T16:26:46.222Z,101060.75
2022-09-06T16:29:16.583Z,101056.06
2022-09-06T16:31:44.152Z,101057.97
2022-09-06T16:34:12.873Z,101059.88
2022-09-06T16:36:40.323Z,101065.84
2022-09-06T16:39:08.707Z,101063.28
2022-09-06T16:41:40.651Z,101071.78
2022-09-06T16:44:16.734Z,101063.94
2022-09-06T16:46:50.009Z,101064.38
2022-09-06T16:49:19.204Z,101074.09
2022-09-06T16:51:48.243Z,101076.88
2022-09-06T16:54:15.903Z,101080.91
2022-09-06T16:56:42.950Z,101072.22
2022-09-06T16:59:11.635Z,101062.44
2022-09-06T17:01:41.834Z,101067.53
2022-09-06T17:04:09.739Z,101069.66
2022-09-06T17:06:44.257Z,101066.47
2022-09-06T17:09:14.741Z,101072.41
2022-09-06T17:11:41.801Z,101066.25
2022-09-06T17:14:09.192Z,101065.84
2022-09-06T17:16:54.748Z,101067.09
2022-09-06T17:19:22.442Z,101076.03
2022-09-06T17:21:49.685Z,101070.94
2022-09-06T17:24:17.082Z,101062.25
2022-09-06T17:26:44.127Z,101053.56
2022-09-06T17:29:11.114Z,101051.47
2022-09-06T17:31:38.862Z,101054.41
2022-09-06T17:34:07.084Z,101049.53
2022-09-06T17:36:53.237Z,101052.88
2022-09-06T17:39:21.421Z,101047.19
2022-09-06T17:41:52.254Z,101046.94
2022-09-06T17:44:22.676Z,101049.50
2022-09-06T17:47:11.458Z,101058.78
2022-09-06T17:49:36.847Z,101060.47
2022-09-06T17:52:03.925Z,101056.84
2022-09-06T17:54:31.856Z,101050.91
2022-09-06T17:56:58.940Z,101056.22
2022-09-06T17:59:25.995Z,101059.78
2022-09-06T18:01:52.999Z,101058.31
2022-09-06T18:04:20.037Z,101057.63
2022-09-06T18:06:47.592Z,101058.88
2022-09-06T18:09:17.583Z,101072.00
2022-09-06T18:11:48.432Z,101066.25
2022-09-06T18:14:18.738Z,101066.91
2022-09-06T18:16:47.377Z,101067.72
2022-09-06T18:19:15.648Z,101072.13
2022-09-06T18:21:43.162Z,101070.84
2022-09-06T18:24:13.867Z,101074.63
2022-09-06T18:26:41.949Z,101070.78
2022-09-06T18:29:13.024Z,101082.38
2022-09-06T18:31:41.264Z,101092.94
2022-09-06T18:34:09.333Z,101095.25
2022-09-06T18:36:38.369Z,101097.53
2022-09-06T18:39:06.357Z,101092.44
2022-09-06T18:41:52.751Z,101089.44
2022-09-06T18:44:19.848Z,101098.72
2022-09-06T18:46:47.935Z,101100.63
2022-09-06T18:49:15.869Z,101098.28
2022-09-06T18:51:44.649Z,101101.25
2022-09-06T18:54:11.639Z,101103.56
2022-09-06T18:56:38.734Z,101100.34
2022-09-06T18:59:07.104Z,101096.09
2022-09-06T19:01:35.322Z,101096.50
2022-09-06T19:04:10.879Z,101103.47
2022-09-06T19:06:40.223Z,101103.84
2022-09-06T19:09:11.947Z,101107.19
2022-09-06T19:11:41.565Z,101100.56
2022-09-06T19:14:08.637Z,101101.84
2022-09-06T19:16:35.902Z,101102.44
2022-09-06T19:19:06.836Z,101116.56
2022-09-06T19:21:37.935Z,101110.59
2022-09-06T19:24:12.058Z,101101.72
2022-09-06T19:26:43.494Z,101103.78
2022-09-06T19:29:17.547Z,101104.19
2022-09-06T19:31:46.957Z,101110.06
2022-09-06T19:34:15.524Z,101104.97
2022-09-06T19:36:44.523Z,101106.41
2022-09-06T19:39:15.501Z,101107.88
2022-09-06T19:41:45.071Z,101103.78
2022-09-06T19:44:12.885Z,101101.66
2022-09-06T19:46:45.466Z,101096.53
2022-09-06T19:49:15.968Z,101102.63
2022-09-06T19:51:45.279Z,101104.72
2022-09-06T19:54:15.386Z,101115.03
2022-09-06T19:56:43.709Z,101112.50
2022-09-06T19:59:12.933Z,101107.84
2022-09-06T20:01:42.360Z,101105.31
2022-09-06T20:04:11.766Z,101108.06
2022-09-06T20:06:39.275Z,101108.22
2022-09-06T20:09:09.961Z,101094.50
2022-09-06T20:11:38.830Z,101077.19
2022-09-06T20:14:06.169Z,101070.84
2022-09-06T20:16:34.585Z,101066.41
2022-09-06T20:19:04.047Z,101071.03
2022-09-06T20:21:31.508Z,101068.50
2022-09-06T20:23:59.561Z,101069.56
2022-09-06T20:26:30.369Z,101078.81
2022-09-06T20:29:02.771Z,101079.03
2022-09-06T20:31:31.627Z,101081.94
2022-09-06T20:34:00.854Z,101083.38
2022-09-06T20:36:28.442Z,101085.47
2022-09-06T20:38:55.478Z,101085.81
2022-09-06T20:41:25.877Z,101079.69
2022-09-06T20:43:58.582Z,101084.53
2022-09-06T20:46:29.238Z,101085.97
2022-09-06T20:48:59.710Z,101081.53
2022-09-06T20:51:31.039Z,101087.00
2022-09-06T20:54:00.927Z,101088.16
2022-09-06T20:56:34.502Z,101091.94
2022-09-06T20:59:04.021Z,101088.66
2022-09-06T21:01:36.078Z,101093.50
2022-09-06T21:04:06.351Z,101097.63
2022-09-06T21:06:36.606Z,101105.59
2022-09-06T21:09:11.169Z,101092.44
2022-09-06T21:11:38.869Z,101095.38
2022-09-06T21:14:07.564Z,101100.88
2022-09-06T21:16:35.037Z,101110.16
2022-09-06T21:19:05.706Z,101109.47
2022-09-06T21:21:34.750Z,101113.81
2022-09-06T21:24:04.729Z,101114.41
2022-09-06T21:26:32.364Z,101112.69
2022-09-06T21:28:59.603Z,101118.53
2022-09-06T21:31:31.402Z,101116.19
2022-09-06T21:34:03.851Z,101124.56
2022-09-06T21:36:35.806Z,101118.63
2022-09-06T21:39:15.273Z,101110.59
2022-09-06T21:41:44.086Z,101108.78
2022-09-06T21:44:12.333Z,101118.44
2022-09-06T21:46:40.620Z,101120.88
2022-09-06T21:49:13.427Z,101148.38
2022-09-06T21:51:41.771Z,101134.72
2022-09-06T21:54:09.561Z,101135.59
2022-09-06T21:56:38.760Z,101126.69
2022-09-06T21:59:07.330Z,101139.72
2022-09-06T22:01:36.663Z,101134.81
2022-09-06T22:04:06.010Z,101139.25
2022-09-06T22:06:35.170Z,101131.03
2022-09-06T22:09:11.555Z,101124.91
2022-09-06T22:11:41.187Z,101129.69
2022-09-06T22:14:11.879Z,101122.34
2022-09-06T22:16:40.573Z,101124.59
2022-09-06T22:19:10.090Z,101122.56
2022-09-06T22:21:38.705Z,101122.94
2022-09-06T22:24:11.334Z,101114.06
2022-09-06T22:26:40.708Z,101116.28
2022-09-06T22:29:10.784Z,101117.53
2022-09-06T22:31:39.302Z,101122.34
2022-09-06T22:34:06.572Z,101111.56
2022-09-06T22:36:33.933Z,101110.69
2022-09-06T22:39:01.096Z,101106.63
2022-09-06T22:41:31.507Z,101117.78
2022-09-06T22:44:03.161Z,101117.09
2022-09-06T22:46:31.734Z,101115.78
2022-09-06T22:48:59.382Z,101111.03
2022-09-06T22:51:26.285Z,101100.59
2022-09-06T22:53:53.292Z,101102.50
2022-09-06T22:56:21.200Z,101101.66
2022-09-06T22:58:48.413Z,101100.59
2022-09-06T23:01:16.961Z,101090.06
2022-09-06T23:03:45.349Z,101091.63
2022-09-06T23:06:12.707Z,101097.63
2022-09-06T23:08:41.002Z,101104.16
2022-09-06T23:11:14.597Z,101117.81
2022-09-06T23:13:43.746Z,101111.66
2022-09-06T23:16:19.505Z,101107.56
2022-09-06T23:18:48.075Z,101114.38
2022-09-06T23:21:19.309Z,101125.13
2022-09-06T23:23:48.583Z,101134.22
2022-09-06T23:26:24.564Z,101142.41
2022-09-06T23:28:56.480Z,101130.59
2022-09-06T23:31:31.566Z,101132.47
2022-09-06T23:34:00.896Z,101124.63
2022-09-06T23:36:28.456Z,101123.78
2022-09-06T23:38:56.071Z,101125.00
2022-09-06T23:41:24.441Z,101120.75
2022-09-06T23:43:51.841Z,101117.19
2022-09-06T23:46:19.514Z,101119.59
2022-09-06T23:48:46.938Z,101124.41
2022-09-06T23:51:14.166Z,101116.38
2022-09-06T23:53:41.476Z,101117.56
2022-09-06T23:56:09.087Z,101115.22
2022-09-06T23:58:36.633Z,101107.72
